sensor_id;sensor_type;location;lat;lon;timestamp;temperature;humidity
75451;DHT22;64029;48.244;9.188;2023-04-01T00:01:28;7.00;81.20
75451;DHT22;64029;48.244;9.188;2023-04-01T00:03:55;7.00;81.70
75451;DHT22;64029;48.244;9.188;2023-04-01T00:06:23;7.00;81.40
75451;DHT22;64029;48.244;9.188;2023-04-01T00:08:50;6.90;81.20
75451;DHT22;64029;48.244;9.188;2023-04-01T00:11:18;7.00;81.00
75451;DHT22;64029;48.244;9.188;2023-04-01T00:13:45;7.00;80.80
75451;DHT22;64029;48.244;9.188;2023-04-01T00:16:12;7.00;80.70
75451;DHT22;64029;48.244;9.188;2023-04-01T00:18:41;7.00;80.50
75451;DHT22;64029;48.244;9.188;2023-04-01T00:21:08;6.90;80.60
75451;DHT22;64029;48.244;9.188;2023-04-01T00:23:35;6.90;80.40
75451;DHT22;64029;48.244;9.188;2023-04-01T00:26:03;7.00;80.80
75451;DHT22;64029;48.244;9.188;2023-04-01T00:28:31;6.90;81.10
75451;DHT22;64029;48.244;9.188;2023-04-01T00:30:57;6.90;81.30
75451;DHT22;64029;48.244;9.188;2023-04-01T00:33:24;6.90;80.70
75451;DHT22;64029;48.244;9.188;2023-04-01T00:35:54;6.90;80.60
75451;DHT22;64029;48.244;9.188;2023-04-01T00:38:21;6.90;80.50
75451;DHT22;64029;48.244;9.188;2023-04-01T00:40:48;6.90;84.00
75451;DHT22;64029;48.244;9.188;2023-04-01T00:43:17;6.90;82.40
75451;DHT22;64029;48.244;9.188;2023-04-01T00:45:46;6.90;82.30
75451;DHT22;64029;48.244;9.188;2023-04-01T00:48:16;6.90;81.70
75451;DHT22;64029;48.244;9.188;2023-04-01T00:50:47;6.90;81.90
75451;DHT22;64029;48.244;9.188;2023-04-01T00:53:17;6.90;81.70
75451;DHT22;64029;48.244;9.188;2023-04-01T00:55:49;6.90;82.10
75451;DHT22;64029;48.244;9.188;2023-04-01T00:58:18;6.90;82.10
75451;DHT22;64029;48.244;9.188;2023-04-01T01:00:49;6.90;82.50
75451;DHT22;64029;48.244;9.188;2023-04-01T01:03:17;6.90;82.30
75451;DHT22;64029;48.244;9.188;2023-04-01T01:06:10;6.80;82.20
75451;DHT22;64029;48.244;9.188;2023-04-01T01:09:00;6.90;82.10
75451;DHT22;64029;48.244;9.188;2023-04-01T01:11:36;6.80;81.40
75451;DHT22;64029;48.244;9.188;2023-04-01T01:14:10;6.80;81.20
75451;DHT22;64029;48.244;9.188;2023-04-01T01:16:42;6.80;81.30
75451;DHT22;64029;48.244;9.188;2023-04-01T01:19:20;6.80;81.00
75451;DHT22;64029;48.244;9.188;2023-04-01T01:22:05;6.80;81.60
75451;DHT22;64029;48.244;9.188;2023-04-01T01:24:47;6.90;82.40
75451;DHT22;64029;48.244;9.188;2023-04-01T01:27:17;6.80;81.80
75451;DHT22;64029;48.244;9.188;2023-04-01T01:30:05;6.80;81.50
75451;DHT22;64029;48.244;9.188;2023-04-01T01:32:59;6.80;81.20
75451;DHT22;64029;48.244;9.188;2023-04-01T01:35:32;6.80;81.10
75451;DHT22;64029;48.244;9.188;2023-04-01T01:38:03;6.80;81.00
75451;DHT22;64029;48.244;9.188;2023-04-01T01:40:32;6.80;81.50
75451;DHT22;64029;48.244;9.188;2023-04-01T01:43:04;6.70;81.90
75451;DHT22;64029;48.244;9.188;2023-04-01T01:45:33;6.70;82.20
75451;DHT22;64029;48.244;9.188;2023-04-01T01:48:02;6.70;81.50
75451;DHT22;64029;48.244;9.188;2023-04-01T01:50:33;6.70;83.50
75451;DHT22;64029;48.244;9.188;2023-04-01T01:53:02;6.70;82.00
75451;DHT22;64029;48.244;9.188;2023-04-01T01:55:31;6.70;81.60
75451;DHT22;64029;48.244;9.188;2023-04-01T01:58:01;6.70;81.50
75451;DHT22;64029;48.244;9.188;2023-04-01T02:00:32;6.70;81.80
75451;DHT22;64029;48.244;9.188;2023-04-01T02:03:00;6.60;83.60
75451;DHT22;64029;48.244;9.188;2023-04-01T02:05:29;6.70;82.30
75451;DHT22;64029;48.244;9.188;2023-04-01T02:08:02;6.70;82.90
75451;DHT22;64029;48.244;9.188;2023-04-01T02:10:33;6.70;82.60
75451;DHT22;64029;48.244;9.188;2023-04-01T02:13:05;6.70;81.90
75451;DHT22;64029;48.244;9.188;2023-04-01T02:15:38;6.60;82.30
75451;DHT22;64029;48.244;9.188;2023-04-01T02:18:07;6.70;81.80
75451;DHT22;64029;48.244;9.188;2023-04-01T02:20:36;6.60;81.90
75451;DHT22;64029;48.244;9.188;2023-04-01T02:23:06;6.70;82.40
75451;DHT22;64029;48.244;9.188;2023-04-01T02:25:35;6.60;81.80
75451;DHT22;64029;48.244;9.188;2023-04-01T02:28:05;6.60;82.70
75451;DHT22;64029;48.244;9.188;2023-04-01T02:30:35;6.60;82.80
75451;DHT22;64029;48.244;9.188;2023-04-01T02:33:04;6.60;82.00
75451;DHT22;64029;48.244;9.188;2023-04-01T02:35:33;6.60;81.70
75451;DHT22;64029;48.244;9.188;2023-04-01T02:38:00;6.60;81.50
75451;DHT22;64029;48.244;9.188;2023-04-01T02:40:29;6.60;81.30
75451;DHT22;64029;48.244;9.188;2023-04-01T02:42:56;6.60;81.60
75451;DHT22;64029;48.244;9.188;2023-04-01T02:45:22;6.60;81.40
75451;DHT22;64029;48.244;9.188;2023-04-01T02:47:49;6.60;81.40
75451;DHT22;64029;48.244;9.188;2023-04-01T02:50:16;6.50;81.30
75451;DHT22;64029;48.244;9.188;2023-04-01T02:52:43;6.50;81.50
75451;DHT22;64029;48.244;9.188;2023-04-01T02:55:10;6.50;81.20
75451;DHT22;64029;48.244;9.188;2023-04-01T02:57:38;6.50;81.30
75451;DHT22;64029;48.244;9.188;2023-04-01T03:00:06;6.50;81.10
75451;DHT22;64029;48.244;9.188;2023-04-01T03:02:37;6.50;81.10
75451;DHT22;64029;48.244;9.188;2023-04-01T03:05:05;6.40;81.30
75451;DHT22;64029;48.244;9.188;2023-04-01T03:07:32;6.40;81.40
75451;DHT22;64029;48.244;9.188;2023-04-01T03:09:59;6.40;81.20
75451;DHT22;64029;48.244;9.188;2023-04-01T03:12:26;6.40;81.20
75451;DHT22;64029;48.244;9.188;2023-04-01T03:14:54;6.40;81.20
75451;DHT22;64029;48.244;9.188;2023-04-01T03:17:21;6.40;81.10
75451;DHT22;64029;48.244;9.188;2023-04-01T03:19:48;6.40;81.00
75451;DHT22;64029;48.244;9.188;2023-04-01T03:22:15;6.30;81.10
75451;DHT22;64029;48.244;9.188;2023-04-01T03:24:42;6.30;81.30
75451;DHT22;64029;48.244;9.188;2023-04-01T03:27:09;6.30;81.20
75451;DHT22;64029;48.244;9.188;2023-04-01T03:29:36;6.30;81.30
75451;DHT22;64029;48.244;9.188;2023-04-01T03:32:04;6.30;81.50
75451;DHT22;64029;48.244;9.188;2023-04-01T03:34:31;6.30;81.50
75451;DHT22;64029;48.244;9.188;2023-04-01T03:36:58;6.20;82.40
75451;DHT22;64029;48.244;9.188;2023-04-01T03:39:25;6.30;82.10
75451;DHT22;64029;48.244;9.188;2023-04-01T03:41:52;6.30;81.60
75451;DHT22;64029;48.244;9.188;2023-04-01T03:44:19;6.30;81.20
75451;DHT22;64029;48.244;9.188;2023-04-01T03:46:46;6.20;81.60
75451;DHT22;64029;48.244;9.188;2023-04-01T03:49:14;6.20;81.80
75451;DHT22;64029;48.244;9.188;2023-04-01T03:51:42;6.20;81.80
75451;DHT22;64029;48.244;9.188;2023-04-01T03:54:09;6.30;81.70
75451;DHT22;64029;48.244;9.188;2023-04-01T03:56:36;6.30;81.60
75451;DHT22;64029;48.244;9.188;2023-04-01T03:59:05;6.30;81.30
75451;DHT22;64029;48.244;9.188;2023-04-01T04:01:32;6.30;81.20
75451;DHT22;64029;48.244;9.188;2023-04-01T04:03:59;6.20;81.50
75451;DHT22;64029;48.244;9.188;2023-04-01T04:06:27;6.20;81.60
75451;DHT22;64029;48.244;9.188;2023-04-01T04:08:54;6.20;81.60
75451;DHT22;64029;48.244;9.188;2023-04-01T04:11:22;6.20;81.50
75451;DHT22;64029;48.244;9.188;2023-04-01T04:13:49;6.20;82.40
75451;DHT22;64029;48.244;9.188;2023-04-01T04:16:17;6.20;81.50
75451;DHT22;64029;48.244;9.188;2023-04-01T04:18:44;6.20;81.80
75451;DHT22;64029;48.244;9.188;2023-04-01T04:21:12;6.20;82.60
75451;DHT22;64029;48.244;9.188;2023-04-01T04:23:41;6.20;83.20
75451;DHT22;64029;48.244;9.188;2023-04-01T04:26:10;6.20;82.10
75451;DHT22;64029;48.244;9.188;2023-04-01T04:28:37;6.20;82.50
75451;DHT22;64029;48.244;9.188;2023-04-01T04:31:05;6.20;82.10
75451;DHT22;64029;48.244;9.188;2023-04-01T04:33:32;6.20;81.90
75451;DHT22;64029;48.244;9.188;2023-04-01T04:36:01;6.20;82.50
75451;DHT22;64029;48.244;9.188;2023-04-01T04:38:28;6.20;82.50
75451;DHT22;64029;48.244;9.188;2023-04-01T04:40:57;6.20;82.50
75451;DHT22;64029;48.244;9.188;2023-04-01T04:43:24;6.20;82.10
75451;DHT22;64029;48.244;9.188;2023-04-01T04:45:51;6.10;83.20
75451;DHT22;64029;48.244;9.188;2023-04-01T04:48:18;6.20;83.00
75451;DHT22;64029;48.244;9.188;2023-04-01T04:50:46;6.20;82.50
75451;DHT22;64029;48.244;9.188;2023-04-01T04:53:15;6.20;82.80
75451;DHT22;64029;48.244;9.188;2023-04-01T04:55:45;6.10;82.30
75451;DHT22;64029;48.244;9.188;2023-04-01T04:58:14;6.10;82.10
75451;DHT22;64029;48.244;9.188;2023-04-01T05:00:41;6.10;82.60
75451;DHT22;64029;48.244;9.188;2023-04-01T05:03:09;6.10;82.00
75451;DHT22;64029;48.244;9.188;2023-04-01T05:05:36;6.10;81.70
75451;DHT22;64029;48.244;9.188;2023-04-01T05:08:03;6.10;82.10
75451;DHT22;64029;48.244;9.188;2023-04-01T05:10:30;6.10;82.40
75451;DHT22;64029;48.244;9.188;2023-04-01T05:12:57;6.10;81.80
75451;DHT22;64029;48.244;9.188;2023-04-01T05:15:26;6.10;81.80
75451;DHT22;64029;48.244;9.188;2023-04-01T05:17:53;6.10;81.80
75451;DHT22;64029;48.244;9.188;2023-04-01T05:20:20;6.10;81.70
75451;DHT22;64029;48.244;9.188;2023-04-01T05:22:46;6.10;81.90
75451;DHT22;64029;48.244;9.188;2023-04-01T05:25:13;6.00;82.30
75451;DHT22;64029;48.244;9.188;2023-04-01T05:27:40;6.00;82.10
75451;DHT22;64029;48.244;9.188;2023-04-01T05:30:08;6.10;82.00
75451;DHT22;64029;48.244;9.188;2023-04-01T05:32:36;6.10;82.40
75451;DHT22;64029;48.244;9.188;2023-04-01T05:35:03;6.00;82.40
75451;DHT22;64029;48.244;9.188;2023-04-01T05:37:30;6.00;82.30
75451;DHT22;64029;48.244;9.188;2023-04-01T05:39:59;6.00;81.70
75451;DHT22;64029;48.244;9.188;2023-04-01T05:42:26;6.10;82.20
75451;DHT22;64029;48.244;9.188;2023-04-01T05:44:53;6.10;82.50
75451;DHT22;64029;48.244;9.188;2023-04-01T05:47:21;6.10;82.20
75451;DHT22;64029;48.244;9.188;2023-04-01T05:49:49;6.10;81.90
75451;DHT22;64029;48.244;9.188;2023-04-01T05:52:16;6.10;81.90
75451;DHT22;64029;48.244;9.188;2023-04-01T05:54:43;6.10;82.00
75451;DHT22;64029;48.244;9.188;2023-04-01T05:57:10;6.10;82.10
75451;DHT22;64029;48.244;9.188;2023-04-01T05:59:37;6.10;82.00
75451;DHT22;64029;48.244;9.188;2023-04-01T06:02:04;6.10;81.80
75451;DHT22;64029;48.244;9.188;2023-04-01T06:04:36;6.20;81.90
75451;DHT22;64029;48.244;9.188;2023-04-01T06:07:11;6.20;82.10
75451;DHT22;64029;48.244;9.188;2023-04-01T06:09:38;6.20;82.80
75451;DHT22;64029;48.244;9.188;2023-04-01T06:12:27;6.20;83.70
75451;DHT22;64029;48.244;9.188;2023-04-01T06:15:03;6.20;82.40
75451;DHT22;64029;48.244;9.188;2023-04-01T06:17:44;6.20;82.70
75451;DHT22;64029;48.244;9.188;2023-04-01T06:20:20;6.30;82.70
75451;DHT22;64029;48.244;9.188;2023-04-01T06:23:19;6.30;82.70
75451;DHT22;64029;48.244;9.188;2023-04-01T06:25:55;6.30;84.10
75451;DHT22;64029;48.244;9.188;2023-04-01T06:28:50;6.30;83.50
75451;DHT22;64029;48.244;9.188;2023-04-01T06:31:38;6.40;83.10
75451;DHT22;64029;48.244;9.188;2023-04-01T06:34:27;6.40;83.40
75451;DHT22;64029;48.244;9.188;2023-04-01T06:37:11;6.40;83.70
75451;DHT22;64029;48.244;9.188;2023-04-01T06:40:02;6.50;85.30
75451;DHT22;64029;48.244;9.188;2023-04-01T06:42:51;6.50;84.00
75451;DHT22;64029;48.244;9.188;2023-04-01T06:45:30;6.50;83.90
75451;DHT22;64029;48.244;9.188;2023-04-01T06:48:10;6.60;83.80
75451;DHT22;64029;48.244;9.188;2023-04-01T06:50:47;6.60;83.40
75451;DHT22;64029;48.244;9.188;2023-04-01T06:53:19;6.60;83.40
75451;DHT22;64029;48.244;9.188;2023-04-01T06:55:52;6.60;83.40
75451;DHT22;64029;48.244;9.188;2023-04-01T06:58:23;6.70;83.40
75451;DHT22;64029;48.244;9.188;2023-04-01T07:00:54;6.70;83.20
75451;DHT22;64029;48.244;9.188;2023-04-01T07:03:29;6.70;84.00
75451;DHT22;64029;48.244;9.188;2023-04-01T07:06:01;6.70;83.40
75451;DHT22;64029;48.244;9.188;2023-04-01T07:08:29;6.70;84.10
75451;DHT22;64029;48.244;9.188;2023-04-01T07:11:02;6.80;83.60
75451;DHT22;64029;48.244;9.188;2023-04-01T07:13:34;6.80;83.70
75451;DHT22;64029;48.244;9.188;2023-04-01T07:16:12;6.80;83.60
75451;DHT22;64029;48.244;9.188;2023-04-01T07:18:44;6.80;84.50
75451;DHT22;64029;48.244;9.188;2023-04-01T07:21:25;6.80;84.00
75451;DHT22;64029;48.244;9.188;2023-04-01T07:23:56;6.90;84.30
75451;DHT22;64029;48.244;9.188;2023-04-01T07:26:27;6.90;84.10
75451;DHT22;64029;48.244;9.188;2023-04-01T07:28:54;7.00;83.80
75451;DHT22;64029;48.244;9.188;2023-04-01T07:31:33;7.00;84.00
75451;DHT22;64029;48.244;9.188;2023-04-01T07:34:09;7.00;84.10
75451;DHT22;64029;48.244;9.188;2023-04-01T07:36:43;7.00;84.00
75451;DHT22;64029;48.244;9.188;2023-04-01T07:39:23;7.00;84.20
75451;DHT22;64029;48.244;9.188;2023-04-01T07:42:01;7.00;83.60
75451;DHT22;64029;48.244;9.188;2023-04-01T07:44:35;7.10;84.40
75451;DHT22;64029;48.244;9.188;2023-04-01T07:47:17;7.10;84.10
75451;DHT22;64029;48.244;9.188;2023-04-01T07:49:56;7.10;84.20
75451;DHT22;64029;48.244;9.188;2023-04-01T07:52:34;7.20;83.90
75451;DHT22;64029;48.244;9.188;2023-04-01T07:55:06;7.20;83.90
75451;DHT22;64029;48.244;9.188;2023-04-01T07:57:40;7.20;83.70
75451;DHT22;64029;48.244;9.188;2023-04-01T08:00:13;7.20;84.30
75451;DHT22;64029;48.244;9.188;2023-04-01T08:02:53;7.20;83.70
75451;DHT22;64029;48.244;9.188;2023-04-01T08:05:26;7.30;83.50
75451;DHT22;64029;48.244;9.188;2023-04-01T08:08:00;7.20;83.90
75451;DHT22;64029;48.244;9.188;2023-04-01T08:10:34;7.30;83.50
75451;DHT22;64029;48.244;9.188;2023-04-01T08:13:10;7.30;83.30
75451;DHT22;64029;48.244;9.188;2023-04-01T08:15:49;7.40;83.30
75451;DHT22;64029;48.244;9.188;2023-04-01T08:18:29;7.40;83.10
75451;DHT22;64029;48.244;9.188;2023-04-01T08:20:59;7.40;82.90
75451;DHT22;64029;48.244;9.188;2023-04-01T08:23:28;7.40;82.80
75451;DHT22;64029;48.244;9.188;2023-04-01T08:26:02;7.40;82.80
75451;DHT22;64029;48.244;9.188;2023-04-01T08:28:34;7.40;82.70
75451;DHT22;64029;48.244;9.188;2023-04-01T08:31:06;7.30;82.50
75451;DHT22;64029;48.244;9.188;2023-04-01T08:33:40;7.40;82.50
75451;DHT22;64029;48.244;9.188;2023-04-01T08:36:12;7.40;82.50
75451;DHT22;64029;48.244;9.188;2023-04-01T08:38:43;7.40;82.50
75451;DHT22;64029;48.244;9.188;2023-04-01T08:44:30;7.30;82.70
75451;DHT22;64029;48.244;9.188;2023-04-01T08:50:35;7.40;82.50
75451;DHT22;64029;48.244;9.188;2023-04-01T08:53:07;7.50;83.00
75451;DHT22;64029;48.244;9.188;2023-04-01T08:55:46;7.40;82.30
75451;DHT22;64029;48.244;9.188;2023-04-01T09:01:22;7.30;82.40
75451;DHT22;64029;48.244;9.188;2023-04-01T09:04:05;7.40;82.50
75451;DHT22;64029;48.244;9.188;2023-04-01T09:06:52;7.40;82.50
75451;DHT22;64029;48.244;9.188;2023-04-01T09:09:56;7.30;82.50
75451;DHT22;64029;48.244;9.188;2023-04-01T09:12:44;7.30;82.60
75451;DHT22;64029;48.244;9.188;2023-04-01T09:18:36;7.30;82.60
75451;DHT22;64029;48.244;9.188;2023-04-01T09:21:24;7.30;82.40
75451;DHT22;64029;48.244;9.188;2023-04-01T09:24:21;7.40;82.30
75451;DHT22;64029;48.244;9.188;2023-04-01T09:27:03;7.40;82.30
75451;DHT22;64029;48.244;9.188;2023-04-01T09:32:47;7.50;82.40
75451;DHT22;64029;48.244;9.188;2023-04-01T09:35:25;7.50;82.10
75451;DHT22;64029;48.244;9.188;2023-04-01T09:38:11;7.50;82.20
75451;DHT22;64029;48.244;9.188;2023-04-01T09:40:54;7.50;82.10
75451;DHT22;64029;48.244;9.188;2023-04-01T09:43:30;7.50;82.10
75451;DHT22;64029;48.244;9.188;2023-04-01T09:46:19;7.60;82.10
75451;DHT22;64029;48.244;9.188;2023-04-01T09:49:08;7.60;82.10
75451;DHT22;64029;48.244;9.188;2023-04-01T09:51:52;7.60;82.40
75451;DHT22;64029;48.244;9.188;2023-04-01T09:54:31;7.60;82.50
75451;DHT22;64029;48.244;9.188;2023-04-01T10:06:53;7.70;82.10
75451;DHT22;64029;48.244;9.188;2023-04-01T10:12:49;7.80;82.00
75451;DHT22;64029;48.244;9.188;2023-04-01T10:15:39;7.80;81.90
75451;DHT22;64029;48.244;9.188;2023-04-01T10:18:32;7.70;81.70
75451;DHT22;64029;48.244;9.188;2023-04-01T10:24:20;7.70;82.20
75451;DHT22;64029;48.244;9.188;2023-04-01T10:27:16;7.60;81.70
75451;DHT22;64029;48.244;9.188;2023-04-01T10:30:22;7.70;81.90
75451;DHT22;64029;48.244;9.188;2023-04-01T10:42:38;7.80;82.50
75451;DHT22;64029;48.244;9.188;2023-04-01T10:45:37;7.80;82.50
75451;DHT22;64029;48.244;9.188;2023-04-01T10:48:22;7.90;82.40
75451;DHT22;64029;48.244;9.188;2023-04-01T10:51:04;7.90;82.50
75451;DHT22;64029;48.244;9.188;2023-04-01T10:53:41;7.90;82.40
75451;DHT22;64029;48.244;9.188;2023-04-01T10:56:42;7.90;82.20
75451;DHT22;64029;48.244;9.188;2023-04-01T10:59:33;7.90;82.00
75451;DHT22;64029;48.244;9.188;2023-04-01T11:05:41;7.90;82.10
75451;DHT22;64029;48.244;9.188;2023-04-01T11:12:06;7.90;81.70
75451;DHT22;64029;48.244;9.188;2023-04-01T11:21:29;7.90;81.90
75451;DHT22;64029;48.244;9.188;2023-04-01T11:24:24;7.90;81.80
75451;DHT22;64029;48.244;9.188;2023-04-01T11:27:10;8.00;82.10
75451;DHT22;64029;48.244;9.188;2023-04-01T11:30:05;7.90;82.00
75451;DHT22;64029;48.244;9.188;2023-04-01T11:32:57;7.80;82.00
75451;DHT22;64029;48.244;9.188;2023-04-01T11:35:42;7.90;82.20
75451;DHT22;64029;48.244;9.188;2023-04-01T11:38:24;7.80;82.40
75451;DHT22;64029;48.244;9.188;2023-04-01T11:40:59;7.90;83.00
75451;DHT22;64029;48.244;9.188;2023-04-01T11:43:33;7.90;82.30
75451;DHT22;64029;48.244;9.188;2023-04-01T11:46:07;7.90;82.20
75451;DHT22;64029;48.244;9.188;2023-04-01T11:51:48;7.90;82.10
75451;DHT22;64029;48.244;9.188;2023-04-01T11:54:34;8.00;82.20
75451;DHT22;64029;48.244;9.188;2023-04-01T11:57:18;7.90;82.10
75451;DHT22;64029;48.244;9.188;2023-04-01T12:03:05;8.00;82.60
75451;DHT22;64029;48.244;9.188;2023-04-01T12:05:42;8.00;82.10
75451;DHT22;64029;48.244;9.188;2023-04-01T12:08:19;8.00;82.20
75451;DHT22;64029;48.244;9.188;2023-04-01T12:10:53;8.10;82.10
75451;DHT22;64029;48.244;9.188;2023-04-01T12:13:31;8.10;82.10
75451;DHT22;64029;48.244;9.188;2023-04-01T12:16:17;8.10;82.00
75451;DHT22;64029;48.244;9.188;2023-04-01T12:18:52;8.10;82.20
75451;DHT22;64029;48.244;9.188;2023-04-01T12:21:26;8.20;82.10
75451;DHT22;64029;48.244;9.188;2023-04-01T12:24:36;8.20;82.10
75451;DHT22;64029;48.244;9.188;2023-04-01T12:27:19;8.20;82.20
75451;DHT22;64029;48.244;9.188;2023-04-01T12:30:17;8.20;82.20
75451;DHT22;64029;48.244;9.188;2023-04-01T12:32:56;8.30;82.30
75451;DHT22;64029;48.244;9.188;2023-04-01T12:35:30;8.30;82.80
75451;DHT22;64029;48.244;9.188;2023-04-01T12:38:10;8.30;82.50
75451;DHT22;64029;48.244;9.188;2023-04-01T12:40:47;8.30;82.40
75451;DHT22;64029;48.244;9.188;2023-04-01T12:46:20;8.30;82.50
75451;DHT22;64029;48.244;9.188;2023-04-01T12:49:16;8.30;82.70
75451;DHT22;64029;48.244;9.188;2023-04-01T12:52:10;8.40;82.80
75451;DHT22;64029;48.244;9.188;2023-04-01T12:55:19;8.40;83.00
75451;DHT22;64029;48.244;9.188;2023-04-01T13:00:56;8.50;82.70
75451;DHT22;64029;48.244;9.188;2023-04-01T13:03:44;8.50;82.50
75451;DHT22;64029;48.244;9.188;2023-04-01T13:06:28;8.50;82.50
75451;DHT22;64029;48.244;9.188;2023-04-01T13:09:03;8.50;82.40
75451;DHT22;64029;48.244;9.188;2023-04-01T13:11:40;8.50;82.40
75451;DHT22;64029;48.244;9.188;2023-04-01T13:17:19;8.50;81.80
75451;DHT22;64029;48.244;9.188;2023-04-01T13:19:51;8.50;82.10
75451;DHT22;64029;48.244;9.188;2023-04-01T13:22:24;8.60;82.30
75451;DHT22;64029;48.244;9.188;2023-04-01T13:24:57;8.60;82.00
75451;DHT22;64029;48.244;9.188;2023-04-01T13:27:30;8.60;81.90
75451;DHT22;64029;48.244;9.188;2023-04-01T13:30:16;8.60;81.70
75451;DHT22;64029;48.244;9.188;2023-04-01T13:32:48;8.70;81.80
75451;DHT22;64029;48.244;9.188;2023-04-01T13:35:23;8.70;81.50
75451;DHT22;64029;48.244;9.188;2023-04-01T13:38:08;8.70;81.80
75451;DHT22;64029;48.244;9.188;2023-04-01T13:40:48;8.70;81.30
75451;DHT22;64029;48.244;9.188;2023-04-01T13:43:18;8.80;81.60
75451;DHT22;64029;48.244;9.188;2023-04-01T13:46:06;8.80;81.60
75451;DHT22;64029;48.244;9.188;2023-04-01T13:48:45;8.80;81.40
75451;DHT22;64029;48.244;9.188;2023-04-01T13:51:30;8.80;81.10
75451;DHT22;64029;48.244;9.188;2023-04-01T13:57:23;8.80;80.50
75451;DHT22;64029;48.244;9.188;2023-04-01T14:00:16;8.90;80.90
75451;DHT22;64029;48.244;9.188;2023-04-01T14:03:10;8.90;80.30
75451;DHT22;64029;48.244;9.188;2023-04-01T14:06:06;8.90;80.10
75451;DHT22;64029;48.244;9.188;2023-04-01T14:08:52;8.90;80.20
75451;DHT22;64029;48.244;9.188;2023-04-01T14:11:27;8.90;79.80
75451;DHT22;64029;48.244;9.188;2023-04-01T14:14:05;8.90;79.80
75451;DHT22;64029;48.244;9.188;2023-04-01T14:17:03;9.00;79.90
75451;DHT22;64029;48.244;9.188;2023-04-01T14:22:38;9.00;79.60
75451;DHT22;64029;48.244;9.188;2023-04-01T14:25:27;9.00;79.00
75451;DHT22;64029;48.244;9.188;2023-04-01T14:28:07;9.00;78.90
75451;DHT22;64029;48.244;9.188;2023-04-01T14:31:00;9.00;79.20
75451;DHT22;64029;48.244;9.188;2023-04-01T14:33:40;9.00;78.80
75451;DHT22;64029;48.244;9.188;2023-04-01T14:36:25;9.10;79.40
75451;DHT22;64029;48.244;9.188;2023-04-01T14:39:03;9.10;79.40
75451;DHT22;64029;48.244;9.188;2023-04-01T14:41:45;9.10;79.20
75451;DHT22;64029;48.244;9.188;2023-04-01T14:44:36;9.10;79.30
75451;DHT22;64029;48.244;9.188;2023-04-01T14:47:28;9.10;79.20
75451;DHT22;64029;48.244;9.188;2023-04-01T14:50:05;9.10;79.10
75451;DHT22;64029;48.244;9.188;2023-04-01T14:52:36;9.10;78.90
75451;DHT22;64029;48.244;9.188;2023-04-01T14:55:19;9.20;79.50
75451;DHT22;64029;48.244;9.188;2023-04-01T14:57:59;9.20;79.20
75451;DHT22;64029;48.244;9.188;2023-04-01T15:00:26;9.20;79.10
75451;DHT22;64029;48.244;9.188;2023-04-01T15:02:59;9.20;79.10
75451;DHT22;64029;48.244;9.188;2023-04-01T15:05:39;9.20;78.90
75451;DHT22;64029;48.244;9.188;2023-04-01T15:08:16;9.20;78.80
75451;DHT22;64029;48.244;9.188;2023-04-01T15:16:55;9.10;78.00
75451;DHT22;64029;48.244;9.188;2023-04-01T15:19:35;8.90;77.50
75451;DHT22;64029;48.244;9.188;2023-04-01T15:22:29;9.00;78.40
75451;DHT22;64029;48.244;9.188;2023-04-01T15:25:13;9.10;78.20
75451;DHT22;64029;48.244;9.188;2023-04-01T15:27:46;9.00;77.70
75451;DHT22;64029;48.244;9.188;2023-04-01T15:30:28;8.90;77.80
75451;DHT22;64029;48.244;9.188;2023-04-01T15:35:56;9.00;77.70
75451;DHT22;64029;48.244;9.188;2023-04-01T15:38:31;8.90;77.40
75451;DHT22;64029;48.244;9.188;2023-04-01T15:41:07;8.90;77.50
75451;DHT22;64029;48.244;9.188;2023-04-01T15:43:41;8.90;77.80
75451;DHT22;64029;48.244;9.188;2023-04-01T15:46:21;8.90;77.30
75451;DHT22;64029;48.244;9.188;2023-04-01T15:49:01;8.90;78.00
75451;DHT22;64029;48.244;9.188;2023-04-01T15:51:47;9.00;78.10
75451;DHT22;64029;48.244;9.188;2023-04-01T15:54:37;9.00;77.50
75451;DHT22;64029;48.244;9.188;2023-04-01T15:57:21;9.00;77.90
75451;DHT22;64029;48.244;9.188;2023-04-01T16:00:06;9.00;77.80
75451;DHT22;64029;48.244;9.188;2023-04-01T16:02:44;9.00;77.80
75451;DHT22;64029;48.244;9.188;2023-04-01T16:05:24;8.90;77.50
75451;DHT22;64029;48.244;9.188;2023-04-01T16:08:02;8.90;77.60
75451;DHT22;64029;48.244;9.188;2023-04-01T16:10:44;8.90;77.80
75451;DHT22;64029;48.244;9.188;2023-04-01T16:13:24;8.90;77.50
75451;DHT22;64029;48.244;9.188;2023-04-01T16:16:01;8.90;77.70
75451;DHT22;64029;48.244;9.188;2023-04-01T16:21:32;8.90;77.00
75451;DHT22;64029;48.244;9.188;2023-04-01T16:24:08;8.80;77.30
75451;DHT22;64029;48.244;9.188;2023-04-01T16:26:38;8.90;77.90
75451;DHT22;64029;48.244;9.188;2023-04-01T16:29:15;8.90;77.80
75451;DHT22;64029;48.244;9.188;2023-04-01T16:31:48;8.90;77.90
75451;DHT22;64029;48.244;9.188;2023-04-01T16:34:20;8.90;78.00
75451;DHT22;64029;48.244;9.188;2023-04-01T16:36:49;8.80;77.40
75451;DHT22;64029;48.244;9.188;2023-04-01T16:39:27;8.90;77.80
75451;DHT22;64029;48.244;9.188;2023-04-01T16:42:13;8.90;77.80
75451;DHT22;64029;48.244;9.188;2023-04-01T16:44:48;8.90;77.80
75451;DHT22;64029;48.244;9.188;2023-04-01T16:47:19;8.90;77.50
75451;DHT22;64029;48.244;9.188;2023-04-01T16:49:52;8.90;77.70
75451;DHT22;64029;48.244;9.188;2023-04-01T16:52:34;8.90;77.70
75451;DHT22;64029;48.244;9.188;2023-04-01T16:55:14;8.80;76.80
75451;DHT22;64029;48.244;9.188;2023-04-01T16:57:46;8.80;77.70
75451;DHT22;64029;48.244;9.188;2023-04-01T17:00:23;8.80;77.80
75451;DHT22;64029;48.244;9.188;2023-04-01T17:02:58;8.80;78.40
75451;DHT22;64029;48.244;9.188;2023-04-01T17:05:43;8.70;77.50
75451;DHT22;64029;48.244;9.188;2023-04-01T17:08:21;8.70;77.60
75451;DHT22;64029;48.244;9.188;2023-04-01T17:10:56;8.80;78.00
75451;DHT22;64029;48.244;9.188;2023-04-01T17:13:37;8.70;77.70
75451;DHT22;64029;48.244;9.188;2023-04-01T17:16:24;8.70;77.70
75451;DHT22;64029;48.244;9.188;2023-04-01T17:19:01;8.70;77.90
75451;DHT22;64029;48.244;9.188;2023-04-01T17:21:47;8.70;78.00
75451;DHT22;64029;48.244;9.188;2023-04-01T17:24:30;8.70;77.50
75451;DHT22;64029;48.244;9.188;2023-04-01T17:27:08;8.70;77.70
75451;DHT22;64029;48.244;9.188;2023-04-01T17:29:46;8.60;77.60
75451;DHT22;64029;48.244;9.188;2023-04-01T17:32:34;8.60;77.50
75451;DHT22;64029;48.244;9.188;2023-04-01T17:35:08;8.60;77.40
75451;DHT22;64029;48.244;9.188;2023-04-01T17:37:44;8.60;77.30
75451;DHT22;64029;48.244;9.188;2023-04-01T17:40:24;8.50;76.90
75451;DHT22;64029;48.244;9.188;2023-04-01T17:42:58;8.50;77.20
75451;DHT22;64029;48.244;9.188;2023-04-01T17:45:32;8.50;77.10
75451;DHT22;64029;48.244;9.188;2023-04-01T17:48:11;8.40;76.90
75451;DHT22;64029;48.244;9.188;2023-04-01T17:51:00;8.40;77.00
75451;DHT22;64029;48.244;9.188;2023-04-01T17:53:42;8.40;77.20
75451;DHT22;64029;48.244;9.188;2023-04-01T17:56:23;8.40;77.10
75451;DHT22;64029;48.244;9.188;2023-04-01T17:58:59;8.30;77.00
75451;DHT22;64029;48.244;9.188;2023-04-01T18:01:43;8.30;77.10
75451;DHT22;64029;48.244;9.188;2023-04-01T18:04:34;8.30;77.10
75451;DHT22;64029;48.244;9.188;2023-04-01T18:07:31;8.30;77.20
75451;DHT22;64029;48.244;9.188;2023-04-01T18:10:17;8.20;77.10